Aérodrome :
LOGIN :

S'inscrire | Disclaimer

   EN    FR    IT 

 










Légende :    VFR   VFR Marginal   IFR   IFR Intensif   IFR Très Intensif
Visi : 
Plafond : 
>= 8 km
>= 3000ft
5 à 8 km
1000 à 3000 ft
1500m à 5 km
500 à 1000 ft
800 à 1500m
200 à 500 ft
< 800m
< 200 ft
Symboles :   Orages  Brouillard  Fortes neiges  Fortes précipitations  Vent > 20 kt
SIGMETs :   Divers  Orages  Givrage  Turbulence  Onde Orograph.  Cendres Volcan.







- Altitude de l'aérodrome : 37 ft
- Code IATA : OLB


LIEO - Olbia Costa Smeralda

DERNIER METAR :
  • 301220Z 05012KT 9999 FEW035 19/11 Q1014

METARs EXPIRÉS :
  • 301150Z 05013KT 9999 FEW035 19/10 Q1014
  • 301120Z 05011KT 9999 FEW035 19/08 Q1014
  • 301050Z 05011KT 030V090 9999 FEW035 19/08 Q1015
  • 301020Z 04011KT 9999 FEW035 19/08 Q1015
  • 300950Z 04010KT 020V080 9999 FEW030 18/09 Q1015

TAF TAF LIEO
Valide du 30 à 12h jusqu'au 01 à 12h UTC


301100Z 3012/0112 08010KT CAVOK
BECMG 3018/3020 VRB05KT
BECMG 0108/0110 04012KT
Pas de NOTAMs connus pour ce terrain.



MET'MAP, la Météo Aéronautique d'un coup d'oeil ! - Copyright ORBIFLY Décembre 2007 - Disclaimer

ORBIFLY MET'MAP TEAM :

Programmation & Développement : Alexandra Zaïnal
Conception & Développement : Baudouin d'Aumeries
Co-Programmation & Développement : Marc-Olivier Méhu
Soutien technique & logistique : Manuel Goepfert

Contact : metmap@orbifly.com




SOURCES & CREDITS :

   NOAA